createdAt,value
2019-03-23T00:01:14.917Z,96.10
2019-03-23T00:03:41.762Z,93.52
2019-03-23T00:06:08.660Z,94.85
2019-03-23T00:08:35.680Z,98.17
2019-03-23T00:11:02.534Z,94.60
2019-03-23T00:13:29.509Z,102.25
2019-03-23T00:15:56.432Z,99.85
2019-03-23T00:18:23.301Z,88.00
2019-03-23T00:20:50.455Z,94.25
2019-03-23T00:23:17.310Z,98.27
2019-03-23T00:25:44.165Z,104.25
2019-03-23T00:28:11.046Z,99.30
2019-03-23T00:30:38.057Z,111.97
2019-03-23T00:33:05.130Z,109.57
2019-03-23T00:35:32.003Z,110.28
2019-03-23T00:37:58.817Z,109.48
2019-03-23T00:40:25.645Z,100.05
2019-03-23T00:42:52.884Z,104.70
2019-03-23T00:45:19.820Z,102.10
2019-03-23T00:47:46.662Z,102.45
2019-03-23T00:50:13.578Z,110.48
2019-03-23T00:52:40.307Z,105.10
2019-03-23T00:55:07.168Z,124.67
2019-03-23T00:57:35.589Z,125.97
2019-03-23T01:00:04.960Z,127.22
2019-03-23T01:02:31.837Z,129.20
2019-03-23T01:04:58.700Z,137.00
2019-03-23T01:07:25.526Z,133.03
2019-03-23T01:09:52.424Z,131.60
2019-03-23T01:12:19.306Z,129.90
2019-03-23T01:14:46.181Z,133.12
2019-03-23T01:17:13.058Z,131.60
2019-03-23T01:19:39.902Z,137.68
2019-03-23T01:22:06.848Z,158.72
2019-03-23T01:24:33.759Z,179.35
2019-03-23T01:27:00.644Z,173.28
2019-03-23T01:29:27.628Z,188.82
2019-03-23T01:31:54.484Z,205.85
2019-03-23T01:34:21.510Z,228.00
2019-03-23T01:36:48.470Z,208.75
2019-03-23T01:39:15.422Z,197.55
2019-03-23T01:41:42.401Z,181.15
2019-03-23T01:44:09.388Z,167.47
2019-03-23T01:46:36.240Z,162.00
2019-03-23T01:49:03.128Z,158.75
2019-03-23T01:51:29.998Z,170.85
2019-03-23T01:53:56.842Z,145.53
2019-03-23T01:56:23.810Z,157.45
2019-03-23T01:58:50.847Z,150.60
2019-03-23T02:01:17.825Z,158.35
2019-03-23T02:03:44.657Z,169.35
2019-03-23T02:06:11.648Z,168.70
2019-03-23T02:08:38.567Z,302.90
2019-03-23T02:11:05.387Z,174.93
2019-03-23T02:13:32.258Z,200.47
2019-03-23T02:15:59.154Z,188.60
2019-03-23T02:18:26.033Z,214.38
2019-03-23T02:20:52.934Z,195.92
2019-03-23T02:23:19.850Z,176.42
2019-03-23T02:25:46.707Z,194.35
2019-03-23T02:28:13.555Z,151.97
2019-03-23T02:30:40.892Z,150.53
2019-03-23T02:33:07.906Z,164.85
2019-03-23T02:35:36.418Z,198.85
2019-03-23T02:38:03.370Z,201.75
2019-03-23T02:40:30.214Z,185.73
2019-03-23T02:42:57.044Z,196.30
2019-03-23T02:45:23.937Z,165.22
2019-03-23T02:47:50.925Z,146.00
2019-03-23T02:50:17.868Z,127.07
2019-03-23T02:52:44.755Z,135.20
2019-03-23T02:55:11.639Z,140.10
2019-03-23T02:57:38.437Z,122.75
2019-03-23T03:00:09.014Z,121.45
2019-03-23T03:02:35.973Z,124.30
2019-03-23T03:05:05.668Z,127.40
2019-03-23T03:07:42.012Z,105.43
2019-03-23T03:10:01.349Z,128.70
2019-03-23T03:12:28.355Z,108.45
2019-03-23T03:14:55.286Z,117.87
2019-03-23T03:17:22.156Z,120.25
2019-03-23T03:19:49.088Z,111.62
2019-03-23T03:22:16.148Z,173.62
2019-03-23T03:24:43.055Z,154.30
2019-03-23T03:27:09.908Z,146.20
2019-03-23T03:29:36.972Z,117.05
2019-03-23T03:32:03.845Z,168.62
2019-03-23T03:34:31.103Z,186.32
2019-03-23T03:36:59.514Z,126.95
2019-03-23T03:39:26.417Z,134.95
2019-03-23T03:41:53.421Z,148.75
2019-03-23T03:44:20.290Z,90.07
2019-03-23T03:46:47.085Z,113.60
2019-03-23T03:49:13.971Z,123.00
2019-03-23T03:51:40.929Z,113.75
2019-03-23T03:54:07.642Z,111.20
2019-03-23T03:56:34.466Z,119.87
2019-03-23T03:59:01.411Z,123.28
2019-03-23T04:01:28.294Z,96.57
2019-03-23T04:03:55.113Z,111.83
2019-03-23T04:06:21.950Z,110.28
2019-03-23T04:08:48.835Z,103.38
2019-03-23T04:11:15.729Z,101.78
2019-03-23T04:13:42.545Z,113.72
2019-03-23T04:16:09.496Z,110.40
2019-03-23T04:18:36.370Z,117.45
2019-03-23T04:21:03.234Z,103.30
2019-03-23T04:23:30.160Z,131.70
2019-03-23T04:25:57.347Z,135.40
2019-03-23T04:28:24.270Z,101.97
2019-03-23T04:30:51.131Z,147.47
2019-03-23T04:33:17.987Z,108.30
2019-03-23T04:35:44.828Z,100.67
2019-03-23T04:38:22.158Z,110.10
2019-03-23T04:40:40.778Z,108.63
2019-03-23T04:43:07.681Z,108.00
2019-03-23T04:45:34.719Z,109.52
2019-03-23T04:48:01.596Z,94.17
2019-03-23T04:50:28.396Z,101.30
2019-03-23T04:52:55.251Z,129.05
2019-03-23T04:55:22.143Z,119.75
2019-03-23T04:57:48.996Z,102.22
2019-03-23T05:00:17.532Z,125.05
2019-03-23T05:02:44.370Z,102.05
2019-03-23T05:05:11.278Z,135.48
2019-03-23T05:07:39.064Z,108.97
2019-03-23T05:10:06.672Z,118.35
2019-03-23T05:12:33.578Z,85.00
2019-03-23T05:15:00.569Z,96.00
2019-03-23T05:17:27.631Z,119.47
2019-03-23T05:19:54.515Z,115.30
2019-03-23T05:22:21.989Z,99.52
2019-03-23T05:24:49.040Z,80.65
2019-03-23T05:27:15.815Z,119.75
2019-03-23T05:29:42.715Z,104.05
2019-03-23T05:32:09.641Z,94.40
2019-03-23T05:34:36.853Z,91.95
2019-03-23T05:37:05.015Z,88.97
2019-03-23T05:39:32.121Z,108.32
2019-03-23T05:41:58.987Z,92.33
2019-03-23T05:44:25.871Z,79.92
2019-03-23T05:46:54.379Z,101.67
2019-03-23T05:49:21.415Z,84.32
2019-03-23T05:51:48.289Z,113.80
2019-03-23T05:54:14.998Z,92.17
2019-03-23T05:56:41.973Z,66.80
2019-03-23T05:59:08.834Z,98.30
2019-03-23T06:01:35.816Z,84.22
2019-03-23T06:04:02.777Z,66.30
2019-03-23T06:06:29.605Z,84.58
2019-03-23T06:08:56.480Z,61.10
2019-03-23T06:11:23.386Z,70.55
2019-03-23T06:13:50.245Z,73.47
2019-03-23T06:16:17.987Z,65.12
2019-03-23T06:18:45.021Z,65.78
2019-03-23T06:21:11.783Z,62.03
2019-03-23T06:23:39.313Z,67.85
2019-03-23T06:26:06.481Z,68.02
2019-03-23T06:28:33.623Z,66.02
2019-03-23T06:31:00.440Z,69.07
2019-03-23T06:33:27.297Z,70.80
2019-03-23T06:35:54.265Z,84.40
2019-03-23T06:38:21.140Z,64.35
2019-03-23T06:40:48.013Z,65.32
2019-03-23T06:43:14.949Z,64.32
2019-03-23T06:45:41.829Z,65.50
2019-03-23T06:48:08.545Z,69.07
2019-03-23T06:50:35.602Z,60.48
2019-03-23T06:53:02.554Z,59.38
2019-03-23T06:55:29.457Z,56.75
2019-03-23T06:57:56.361Z,61.13
2019-03-23T07:00:23.356Z,57.03
2019-03-23T07:02:50.296Z,66.35
2019-03-23T07:05:17.101Z,61.70
2019-03-23T07:07:43.919Z,74.15
2019-03-23T07:10:13.535Z,71.25
2019-03-23T07:12:40.331Z,65.37
2019-03-23T07:15:19.472Z,60.92
2019-03-23T07:17:39.480Z,68.17
2019-03-23T07:20:10.995Z,69.40
2019-03-23T07:22:37.994Z,68.25
2019-03-23T07:25:08.658Z,76.20
2019-03-23T07:27:35.723Z,70.25
2019-03-23T07:30:08.753Z,73.22
2019-03-23T07:32:35.712Z,145.53
2019-03-23T07:35:03.473Z,72.42
2019-03-23T07:37:30.414Z,70.17
2019-03-23T07:39:57.730Z,71.17
2019-03-23T07:42:24.775Z,79.70
2019-03-23T07:44:51.668Z,80.50
2019-03-23T07:47:19.120Z,74.42
2019-03-23T07:49:46.144Z,73.55
2019-03-23T07:52:13.033Z,74.30
2019-03-23T07:54:39.960Z,73.60
2019-03-23T07:57:06.923Z,75.00
2019-03-23T07:59:33.908Z,81.92
2019-03-23T08:02:00.898Z,85.90
2019-03-23T08:04:27.733Z,75.32
2019-03-23T08:06:54.493Z,78.28
2019-03-23T08:09:23.473Z,73.60
2019-03-23T08:11:50.199Z,77.27
2019-03-23T08:14:17.099Z,78.57
2019-03-23T08:16:43.992Z,80.87
2019-03-23T08:19:10.956Z,79.05
2019-03-23T08:21:37.911Z,79.10
2019-03-23T08:24:04.762Z,75.12
2019-03-23T08:26:31.512Z,81.15
2019-03-23T08:28:58.404Z,77.87
2019-03-23T08:31:25.324Z,84.22
2019-03-23T08:33:55.564Z,86.30
2019-03-23T08:36:22.803Z,79.45
2019-03-23T08:38:51.649Z,80.25
2019-03-23T08:41:19.884Z,83.70
2019-03-23T08:43:46.725Z,73.57
2019-03-23T08:46:13.612Z,87.57
2019-03-23T08:48:40.669Z,80.12
2019-03-23T08:51:07.553Z,82.72
2019-03-23T08:53:34.558Z,79.97
2019-03-23T08:59:38.942Z,74.95
2019-03-23T09:02:05.903Z,77.67
2019-03-23T09:04:32.839Z,77.20
2019-03-23T09:06:59.660Z,77.03
2019-03-23T09:09:26.525Z,76.67
2019-03-23T09:11:53.547Z,78.92
2019-03-23T09:14:20.393Z,79.42
2019-03-23T09:16:47.295Z,71.90
2019-03-23T09:19:14.293Z,78.95
2019-03-23T09:21:41.146Z,69.40
2019-03-23T09:24:07.905Z,75.85
2019-03-23T09:26:35.221Z,69.42
2019-03-23T09:29:02.063Z,71.47
2019-03-23T09:31:28.923Z,78.20
2019-03-23T09:33:55.941Z,68.57
2019-03-23T09:36:23.210Z,63.15
2019-03-23T09:38:50.052Z,64.35
2019-03-23T09:41:16.974Z,65.03
2019-03-23T09:43:43.810Z,70.75
2019-03-23T09:46:10.821Z,65.22
2019-03-23T09:48:37.816Z,61.20
2019-03-23T09:51:04.686Z,60.08
2019-03-23T09:53:31.557Z,59.73
2019-03-23T09:55:58.627Z,64.97
2019-03-23T09:58:25.455Z,57.30
2019-03-23T10:00:52.374Z,64.82
2019-03-23T10:03:19.189Z,58.40
2019-03-23T10:05:46.060Z,58.63
2019-03-23T10:08:12.911Z,73.70
2019-03-23T10:10:40.207Z,66.12
2019-03-23T10:13:07.053Z,58.92
2019-03-23T10:15:33.918Z,58.78
2019-03-23T10:18:01.755Z,57.00
2019-03-23T10:20:30.906Z,66.67
2019-03-23T10:22:57.870Z,63.10
2019-03-23T10:25:24.746Z,58.90
2019-03-23T10:27:52.094Z,56.90
2019-03-23T10:30:19.242Z,56.45
2019-03-23T10:32:46.054Z,75.35
2019-03-23T10:35:12.974Z,62.55
2019-03-23T10:37:40.177Z,59.00
2019-03-23T10:40:08.735Z,53.58
2019-03-23T10:42:35.531Z,55.25
2019-03-23T10:45:05.315Z,57.83
2019-03-23T10:49:59.106Z,58.02
2019-03-23T10:52:26.151Z,59.85
2019-03-23T10:54:52.966Z,53.13
2019-03-23T10:57:20.109Z,53.83
2019-03-23T10:59:47.014Z,62.40
2019-03-23T11:02:13.844Z,63.70
2019-03-23T11:04:40.701Z,55.08
2019-03-23T11:07:07.662Z,54.35
2019-03-23T11:09:34.673Z,54.27
2019-03-23T11:12:01.779Z,50.05
2019-03-23T11:14:28.721Z,46.58
2019-03-23T11:16:55.723Z,52.73
2019-03-23T11:19:25.644Z,54.90
2019-03-23T11:21:52.513Z,42.55
2019-03-23T11:24:20.710Z,43.48
2019-03-23T11:26:47.581Z,39.78
2019-03-23T11:29:14.448Z,51.95
2019-03-23T11:31:41.528Z,49.65
2019-03-23T11:34:17.507Z,44.88
2019-03-23T11:36:37.714Z,46.10
2019-03-23T11:39:05.758Z,38.40
2019-03-23T11:41:32.774Z,50.70
2019-03-23T11:43:59.600Z,35.35
2019-03-23T11:46:26.451Z,37.08
2019-03-23T11:48:53.306Z,35.78
2019-03-23T11:51:20.288Z,35.00
2019-03-23T11:53:47.310Z,33.42
2019-03-23T11:56:14.171Z,32.75
2019-03-23T11:58:41.205Z,34.48
2019-03-23T12:01:08.111Z,36.00
2019-03-23T12:03:34.992Z,33.60
2019-03-23T12:06:01.936Z,40.17
2019-03-23T12:08:28.812Z,27.85
2019-03-23T12:11:02.828Z,27.60
2019-03-23T12:13:24.363Z,28.07
2019-03-23T12:15:51.226Z,29.72
2019-03-23T12:18:18.144Z,27.13
2019-03-23T12:20:45.090Z,26.95
2019-03-23T12:23:11.958Z,27.87
2019-03-23T12:25:38.837Z,36.25
2019-03-23T12:28:05.816Z,39.05
2019-03-23T12:30:32.723Z,62.17
2019-03-23T12:32:59.672Z,28.52
2019-03-23T12:35:26.782Z,25.12
2019-03-23T12:37:53.690Z,29.20
2019-03-23T12:40:20.872Z,52.45
2019-03-23T12:42:47.878Z,27.93
2019-03-23T12:45:14.743Z,25.65
2019-03-23T12:47:41.713Z,29.55
2019-03-23T12:50:09.647Z,23.22
2019-03-23T12:52:36.582Z,32.15
2019-03-23T12:55:05.220Z,27.50
2019-03-23T12:57:32.100Z,36.25
2019-03-23T12:59:59.326Z,18.67
2019-03-23T13:02:26.217Z,20.15
2019-03-23T13:04:53.180Z,20.65
2019-03-23T13:07:20.083Z,17.42
2019-03-23T13:09:46.952Z,23.10
2019-03-23T13:12:13.824Z,22.48
2019-03-23T13:14:40.767Z,20.57
2019-03-23T13:17:07.622Z,18.60
2019-03-23T13:19:34.488Z,29.45
2019-03-23T13:22:01.439Z,20.00
2019-03-23T13:24:28.280Z,21.65
2019-03-23T13:26:55.183Z,20.70
2019-03-23T13:29:22.041Z,25.15
2019-03-23T13:31:49.013Z,21.45
2019-03-23T13:34:15.802Z,23.80
2019-03-23T13:36:42.734Z,24.67
2019-03-23T13:39:09.731Z,26.80
2019-03-23T13:41:47.780Z,19.92
2019-03-23T13:44:14.681Z,27.83
2019-03-23T13:46:41.531Z,23.30
2019-03-23T13:49:08.459Z,32.55
2019-03-23T13:51:35.366Z,27.10
2019-03-23T13:54:02.232Z,33.55
2019-03-23T13:56:29.749Z,24.63
2019-03-23T13:58:56.612Z,22.82
2019-03-23T14:01:23.721Z,21.33
2019-03-23T14:03:50.838Z,21.73
2019-03-23T14:06:17.780Z,21.05
2019-03-23T14:08:44.661Z,25.15
2019-03-23T14:11:11.714Z,27.90
2019-03-23T14:13:38.653Z,23.98
2019-03-23T14:16:05.591Z,23.67
2019-03-23T14:18:32.556Z,22.67
2019-03-23T14:20:59.493Z,23.47
2019-03-23T14:23:26.373Z,24.70
2019-03-23T14:25:53.650Z,24.85
2019-03-23T14:28:20.541Z,25.00
2019-03-23T14:30:47.395Z,52.88
2019-03-23T14:33:14.308Z,21.27
2019-03-23T14:35:41.134Z,24.45
2019-03-23T14:38:08.007Z,23.77
2019-03-23T14:40:34.991Z,24.02
2019-03-23T14:43:01.914Z,21.60
2019-03-23T14:45:28.878Z,21.65
2019-03-23T14:47:55.870Z,66.65
2019-03-23T14:50:22.934Z,22.75
2019-03-23T14:52:49.792Z,22.35
2019-03-23T14:55:16.698Z,19.57
2019-03-23T14:57:43.603Z,39.27
2019-03-23T15:00:10.479Z,36.58
2019-03-23T15:02:37.833Z,21.35
2019-03-23T15:05:05.988Z,21.15
2019-03-23T15:07:33.155Z,19.50
2019-03-23T15:10:00.316Z,19.98
2019-03-23T15:12:27.461Z,18.82
2019-03-23T15:14:54.199Z,19.37
2019-03-23T15:17:21.342Z,19.12
2019-03-23T15:19:48.267Z,21.60
2019-03-23T15:22:15.222Z,20.97
2019-03-23T15:24:42.845Z,19.45
2019-03-23T15:27:09.715Z,19.50
2019-03-23T15:29:36.763Z,20.50
2019-03-23T15:32:03.574Z,20.95
2019-03-23T15:34:30.557Z,25.37
2019-03-23T15:36:57.551Z,19.17
2019-03-23T15:39:24.362Z,22.05
2019-03-23T15:41:51.235Z,21.90
2019-03-23T15:44:18.213Z,20.65
2019-03-23T15:46:45.409Z,19.70
2019-03-23T15:49:12.247Z,19.70
2019-03-23T15:51:39.265Z,22.70
2019-03-23T15:54:06.077Z,18.37
2019-03-23T15:56:32.923Z,20.97
2019-03-23T15:58:59.800Z,20.27
2019-03-23T16:01:26.757Z,17.57
2019-03-23T16:03:53.655Z,17.73
2019-03-23T16:06:20.531Z,15.60
2019-03-23T16:08:47.421Z,24.60
2019-03-23T16:11:14.209Z,18.07
2019-03-23T16:13:41.268Z,20.65
2019-03-23T16:16:08.135Z,25.85
2019-03-23T16:18:35.026Z,20.25
2019-03-23T16:21:01.937Z,18.90
2019-03-23T16:23:28.845Z,18.23
2019-03-23T16:25:55.689Z,23.35
2019-03-23T16:28:22.534Z,18.57
2019-03-23T16:30:49.382Z,24.12
2019-03-23T16:33:16.281Z,15.80
2019-03-23T16:35:43.287Z,19.60
2019-03-23T16:38:10.309Z,20.92
2019-03-23T16:40:37.295Z,19.75
2019-03-23T16:43:06.247Z,19.80
2019-03-23T16:45:33.404Z,21.00
2019-03-23T16:48:00.386Z,17.60
2019-03-23T16:50:27.378Z,24.00
2019-03-23T16:52:54.368Z,23.62
2019-03-23T16:55:21.252Z,17.57
2019-03-23T16:57:48.420Z,19.67
2019-03-23T17:00:19.188Z,24.18
2019-03-23T17:02:46.337Z,23.10
2019-03-23T17:05:13.253Z,24.60
2019-03-23T17:07:40.132Z,28.75
2019-03-23T17:10:07.598Z,23.52
2019-03-23T17:12:34.465Z,30.10
2019-03-23T17:15:01.970Z,73.20
2019-03-23T17:17:28.988Z,33.40
2019-03-23T17:19:55.898Z,44.88
2019-03-23T17:22:22.915Z,32.93
2019-03-23T17:24:49.806Z,31.45
2019-03-23T17:27:16.697Z,40.03
2019-03-23T17:29:43.698Z,33.60
2019-03-23T17:32:10.686Z,32.75
2019-03-23T17:34:37.670Z,35.13
2019-03-23T17:37:04.635Z,49.95
2019-03-23T17:39:31.505Z,46.33
2019-03-23T17:41:58.439Z,33.40
2019-03-23T17:44:25.230Z,29.37
2019-03-23T17:46:52.104Z,39.90
2019-03-23T17:49:18.943Z,39.73
2019-03-23T17:51:45.932Z,38.35
2019-03-23T17:54:13.125Z,35.17
2019-03-23T17:56:40.046Z,37.90
2019-03-23T17:59:06.916Z,47.53
2019-03-23T18:01:33.983Z,37.80
2019-03-23T18:04:00.914Z,36.75
2019-03-23T18:06:29.575Z,45.83
2019-03-23T18:08:56.397Z,44.73
2019-03-23T18:11:23.356Z,43.73
2019-03-23T18:13:50.479Z,40.92
2019-03-23T18:16:17.326Z,50.15
2019-03-23T18:18:44.212Z,65.65
2019-03-23T18:21:11.290Z,46.75
2019-03-23T19:27:38.586Z,33.65
2019-03-23T19:30:06.334Z,33.63
2019-03-23T19:32:34.213Z,35.75
2019-03-23T19:37:21.473Z,57.73
2019-03-23T19:39:48.494Z,60.98
2019-03-23T19:42:16.500Z,68.42
2019-03-23T19:44:44.282Z,74.62
2019-03-23T19:47:11.122Z,72.40
2019-03-23T19:49:38.090Z,74.00
2019-03-23T19:52:04.972Z,78.57
2019-03-23T19:54:32.163Z,74.77
2019-03-23T19:56:59.057Z,81.28
2019-03-23T19:59:26.304Z,87.45
2019-03-23T20:01:53.369Z,81.40
2019-03-23T20:04:20.609Z,86.82
2019-03-23T20:06:47.454Z,97.53
2019-03-23T20:09:14.771Z,89.30
2019-03-23T20:11:41.458Z,90.17
2019-03-23T20:14:08.478Z,98.17
2019-03-23T20:16:35.321Z,96.05
2019-03-23T20:19:02.141Z,89.28
2019-03-23T20:21:29.327Z,100.38
2019-03-23T20:23:56.179Z,108.12
2019-03-23T20:26:23.040Z,94.47
2019-03-23T20:28:50.135Z,98.82
2019-03-23T20:31:17.185Z,97.60
2019-03-23T20:33:44.079Z,106.20
2019-03-23T20:36:10.901Z,96.65
2019-03-23T20:38:37.795Z,98.15
2019-03-23T20:41:04.749Z,93.05
2019-03-23T20:43:31.966Z,101.02
2019-03-23T20:45:58.973Z,89.42
2019-03-23T20:48:25.873Z,100.15
2019-03-23T20:50:52.632Z,90.55
2019-03-23T20:53:19.468Z,88.10
2019-03-23T20:55:46.642Z,88.90
2019-03-23T20:58:13.559Z,85.22
2019-03-23T21:00:40.586Z,80.07
2019-03-23T21:03:07.777Z,81.45
2019-03-23T21:05:34.746Z,77.42
2019-03-23T21:08:02.004Z,86.35
2019-03-23T21:10:28.875Z,91.28
2019-03-23T21:12:55.738Z,80.97
2019-03-23T21:15:22.648Z,81.80
2019-03-23T21:17:51.481Z,85.38
2019-03-23T21:20:18.393Z,89.20
2019-03-23T21:22:45.471Z,83.80
2019-03-23T21:25:12.763Z,81.45
2019-03-23T21:27:39.737Z,85.92
2019-03-23T21:30:12.180Z,95.90
2019-03-23T21:32:39.178Z,94.58
2019-03-23T21:35:06.351Z,103.05
2019-03-23T21:37:34.902Z,107.97
2019-03-23T21:40:02.153Z,106.30
2019-03-23T21:42:28.959Z,106.72
2019-03-23T21:44:56.128Z,107.25
2019-03-23T21:47:23.048Z,102.45
2019-03-23T21:49:49.867Z,102.53
2019-03-23T21:52:17.050Z,100.80
2019-03-23T21:54:44.183Z,104.97
2019-03-23T21:57:11.057Z,107.83
2019-03-23T21:59:37.814Z,115.88
2019-03-23T22:02:04.800Z,116.90
2019-03-23T22:04:31.642Z,110.08
2019-03-23T22:06:58.409Z,112.85
2019-03-23T22:09:25.239Z,118.35
2019-03-23T22:11:52.174Z,118.50
2019-03-23T22:14:19.080Z,115.75
2019-03-23T22:16:45.948Z,114.67
2019-03-23T22:19:12.893Z,109.87
2019-03-23T22:21:39.833Z,115.57
2019-03-23T22:24:06.648Z,117.25
2019-03-23T22:26:34.020Z,113.05
2019-03-23T22:29:00.845Z,122.05
2019-03-23T22:31:27.616Z,126.85
2019-03-23T22:33:54.502Z,115.28
2019-03-23T22:36:21.372Z,119.22
2019-03-23T22:38:48.457Z,121.10
2019-03-23T22:41:15.507Z,130.27
2019-03-23T22:43:42.356Z,125.50
2019-03-23T22:46:09.466Z,116.50
2019-03-23T22:48:36.325Z,117.22
2019-03-23T22:51:04.875Z,127.00
2019-03-23T22:53:31.840Z,127.78
2019-03-23T22:55:59.042Z,122.25
2019-03-23T22:58:25.771Z,125.80
2019-03-23T23:00:53.542Z,116.28
2019-03-23T23:03:20.508Z,114.15
2019-03-23T23:05:47.389Z,119.15
2019-03-23T23:08:14.293Z,115.12
2019-03-23T23:10:41.303Z,116.28
2019-03-23T23:13:08.414Z,119.67
2019-03-23T23:15:35.535Z,119.40
2019-03-23T23:18:02.430Z,133.45
2019-03-23T23:20:29.327Z,126.12
2019-03-23T23:22:56.382Z,125.87
2019-03-23T23:25:23.339Z,132.82
2019-03-23T23:27:50.091Z,123.50
2019-03-23T23:30:16.977Z,132.20
2019-03-23T23:32:43.826Z,133.25
2019-03-23T23:35:10.983Z,130.63
2019-03-23T23:37:38.141Z,112.65
2019-03-23T23:40:05.514Z,124.40
2019-03-23T23:42:32.657Z,113.45
2019-03-23T23:44:59.485Z,111.80
2019-03-23T23:47:26.273Z,133.10
2019-03-23T23:49:53.342Z,133.97
2019-03-23T23:52:20.243Z,116.82
2019-03-23T23:54:47.116Z,110.08
2019-03-23T23:57:14.569Z,108.27
2019-03-23T23:59:41.449Z,103.75
